Time;durP1;ratioP1;P1;durP2;ratioP2;P2;SDS_P1;SDS_P2;PMS_P1;PMS_P2;Temp;Humidity;BMP_temperature;BMP_pressure;BME280_temperature;BME280_humidity;BME280_pressure;Samples;Min_cycle;Max_cycle;Signal;HPM_P1;HPM_P2
2023/01/14 00:01:22;;;;;;;2.03;1.40;;;;;;;10.04;100.00;96745.69;5023189;28;20548;-47
2023/01/14 00:03:52;;;;;;;1.52;1.20;;;;;;;9.46;100.00;96752.41;5020262;28;20309;-49
2023/01/14 00:06:24;;;;;;;1.50;1.40;;;;;;;9.79;100.00;96753.09;5027498;28;20084;-47
2023/01/14 00:08:54;;;;;;;1.98;1.30;;;;;;;10.29;100.00;96753.16;5018765;28;20099;-60
2023/01/14 00:11:45;;;;;;;2.88;1.50;;;;;;;10.41;100.00;96754.69;5022232;28;20445;-51
2023/01/14 00:14:15;;;;;;;1.83;1.00;;;;;;;10.09;100.00;96748.78;5023861;28;20084;-56
2023/01/14 00:16:44;;;;;;;2.88;1.13;;;;;;;10.50;100.00;96745.16;5026329;28;20081;-55
2023/01/14 00:19:14;;;;;;;1.40;0.85;;;;;;;10.49;100.00;96742.63;5026778;28;20089;-53
2023/01/14 00:21:43;;;;;;;2.47;1.20;;;;;;;10.43;100.00;96741.41;5025353;28;20089;-50
2023/01/14 00:24:12;;;;;;;2.42;0.80;;;;;;;10.75;100.00;96735.84;5021262;28;20088;-49
2023/01/14 00:26:43;;;;;;;2.22;0.80;;;;;;;10.81;100.00;96729.22;5022875;28;20091;-50
2023/01/14 00:29:16;;;;;;;1.52;0.70;;;;;;;10.43;100.00;96736.97;5021808;28;20081;-55
2023/01/14 00:31:44;;;;;;;3.95;0.93;;;;;;;10.63;100.00;96734.31;5021740;28;20097;-57
2023/01/14 00:34:15;;;;;;;1.15;0.88;;;;;;;10.08;100.00;96742.69;5024081;28;20088;-52
2023/01/14 00:36:43;;;;;;;;;;;;;;;10.26;100.00;96748.16;5023952;28;20555;-52
2023/01/14 00:39:12;;;;;;;2.35;1.23;;;;;;;10.25;100.00;96748.25;5028237;28;19960;-60
2023/01/14 00:41:41;;;;;;;3.00;1.77;;;;;;;10.28;100.00;96748.84;5026825;28;20093;-54
2023/01/14 00:44:10;;;;;;;3.20;1.30;;;;;;;10.03;100.00;96755.41;5019601;28;20049;-53
2023/01/14 00:46:39;;;;;;;3.55;0.80;;;;;;;10.28;100.00;96753.28;5025705;28;20065;-51
2023/01/14 00:49:09;;;;;;;2.58;0.90;;;;;;;10.64;100.00;96743.91;5018193;28;20073;-59
2023/01/14 00:51:39;;;;;;;1.88;1.17;;;;;;;10.45;100.00;96742.06;5021719;28;20088;-51
2023/01/14 00:54:07;;;;;;;3.70;1.20;;;;;;;10.22;100.00;96752.00;5018434;28;20156;-59
2023/01/14 00:56:35;;;;;;;1.70;0.80;;;;;;;10.79;100.00;96742.50;5023720;28;20100;-56
2023/01/14 00:59:03;;;;;;;4.13;0.80;;;;;;;10.91;100.00;96740.59;5033165;28;20108;-52
2023/01/14 01:01:32;;;;;;;1.40;0.85;;;;;;;11.07;100.00;96740.81;5024751;28;20085;-55
2023/01/14 01:04:00;;;;;;;1.65;0.80;;;;;;;10.88;100.00;96746.13;5028019;28;20084;-52
2023/01/14 01:06:29;;;;;;;2.17;0.73;;;;;;;11.42;100.00;96744.66;5022639;28;20072;-52
2023/01/14 01:09:00;;;;;;;2.20;0.80;;;;;;;11.20;100.00;96745.81;5028725;28;20099;-53
2023/01/14 01:11:29;;;;;;;2.10;0.82;;;;;;;11.38;100.00;96753.84;5027707;28;20081;-54
2023/01/14 01:13:58;;;;;;;0.98;0.70;;;;;;;11.81;100.00;96745.38;5026895;28;20452;-53
2023/01/14 01:16:26;;;;;;;3.83;0.80;;;;;;;11.97;100.00;96752.69;5029343;28;20080;-53
2023/01/14 01:18:56;;;;;;;4.43;0.80;;;;;;;12.11;100.00;96754.88;5027479;28;20071;-56
2023/01/14 01:21:25;;;;;;;1.95;1.08;;;;;;;12.14;100.00;96761.66;5028091;28;20080;-53
2023/01/14 01:23:54;;;;;;;2.78;0.80;;;;;;;12.03;100.00;96749.47;5028009;28;20737;-52
2023/01/14 01:26:25;;;;;;;3.00;0.73;;;;;;;11.64;100.00;96752.25;5030732;28;20084;-50
2023/01/14 01:28:55;;;;;;;2.38;0.70;;;;;;;11.06;100.00;96755.00;5024593;28;20466;-52
2023/01/14 01:31:24;;;;;;;1.40;0.82;;;;;;;11.31;100.00;96755.38;5030447;28;20108;-54
2023/01/14 01:33:52;;;;;;;1.63;0.70;;;;;;;11.12;100.00;96759.72;5028643;28;21768;-59
2023/01/14 01:36:22;;;;;;;3.22;0.95;;;;;;;11.32;100.00;96757.91;5028604;28;20770;-55
2023/01/14 01:38:50;;;;;;;4.23;1.37;;;;;;;11.25;100.00;96754.16;5029880;28;20068;-53
2023/01/14 01:41:21;;;;;;;1.73;1.20;;;;;;;11.35;100.00;96754.13;5027645;28;20106;-53
2023/01/14 01:44:07;;;;;;;3.88;1.05;;;;;;;11.30;100.00;96751.09;5029303;28;20068;-53
2023/01/14 01:46:37;;;;;;;2.42;0.80;;;;;;;10.82;100.00;96757.25;5025124;28;20057;-55
2023/01/14 01:49:09;;;;;;;3.47;1.00;;;;;;;10.26;100.00;96768.41;5028247;28;20061;-53
2023/01/14 01:51:41;;;;;;;1.83;0.82;;;;;;;10.53;100.00;96760.69;5026769;28;20505;-53
2023/01/14 01:54:10;;;;;;;1.83;1.20;;;;;;;10.45;100.00;96761.34;5025933;28;20065;-54
2023/01/14 01:56:39;;;;;;;3.75;1.02;;;;;;;10.43;100.00;96781.78;5028567;28;20527;-53
2023/01/14 01:59:11;;;;;;;2.88;1.60;;;;;;;9.93;100.00;96780.88;5031249;28;20073;-57
2023/01/14 02:01:39;;;;;;;1.30;1.17;;;;;;;10.14;100.00;96783.47;5027609;28;20073;-49
2023/01/14 02:04:08;;;;;;;2.28;1.20;;;;;;;9.59;100.00;96783.78;5027062;28;20072;-61
2023/01/14 02:06:36;;;;;;;5.18;1.50;;;;;;;9.94;100.00;96785.19;5027502;28;20574;-53
2023/01/14 02:09:05;;;;;;;1.80;0.93;;;;;;;9.54;100.00;96785.16;5026680;28;20123;-57
2023/01/14 02:11:44;;;;;;;2.22;0.95;;;;;;;10.02;100.00;96782.72;5034946;28;20075;-49
2023/01/14 02:14:26;;;;;;;4.32;0.98;;;;;;;9.76;100.00;96782.34;5024503;28;20093;-56
2023/01/14 02:17:00;;;;;;;2.70;0.80;;;;;;;9.73;100.00;96785.22;5028795;28;20429;-52
2023/01/14 02:19:38;;;;;;;1.77;0.80;;;;;;;10.01;100.00;96786.31;5024981;28;20073;-59
2023/01/14 02:22:17;;;;;;;5.00;1.20;;;;;;;9.46;100.00;96778.72;5028883;28;20075;-57
2023/01/14 02:25:19;;;;;;;3.47;0.90;;;;;;;9.92;100.00;96785.31;5028677;28;20060;-50
2023/01/14 02:27:53;;;;;;;3.45;0.95;;;;;;;9.56;100.00;96783.19;5018455;28;20444;-56
2023/01/14 02:30:37;;;;;;;3.40;0.93;;;;;;;9.79;100.00;96789.97;5027376;28;20092;-54
2023/01/14 02:33:15;;;;;;;4.28;0.93;;;;;;;9.95;100.00;96792.13;5025791;28;20073;-50
2023/01/14 02:35:45;;;;;;;4.30;0.95;;;;;;;10.09;100.00;96790.94;5028547;28;20580;-50
2023/01/14 02:38:19;;;;;;;4.53;1.50;;;;;;;9.84;100.00;96794.84;5025147;28;20084;-52
2023/01/14 02:40:52;;;;;;;2.10;0.73;;;;;;;10.30;100.00;96783.81;5028588;28;20065;-53
2023/01/14 02:46:17;;;;;;;4.03;1.20;;;;;;;9.54;100.00;96791.25;5020650;28;20080;-51
2023/01/14 02:48:46;;;;;;;3.03;1.15;;;;;;;9.92;100.00;96787.97;5036790;28;20508;-51
2023/01/14 02:51:14;;;;;;;1.95;1.10;;;;;;;9.71;100.00;96784.53;5025208;28;20073;-54
2023/01/14 02:53:43;;;;;;;3.88;1.00;;;;;;;9.63;100.00;96789.63;5026677;28;20103;-53
2023/01/14 02:56:12;;;;;;;5.07;1.52;;;;;;;9.77;100.00;96777.91;5025210;28;20073;-55
2023/01/14 02:58:47;;;;;;;6.70;1.05;;;;;;;9.69;100.00;96775.94;5031485;28;20080;-49
2023/01/14 03:01:26;;;;;;;5.28;1.35;;;;;;;9.84;100.00;96774.63;5023611;28;20735;-50
2023/01/14 03:04:07;;;;;;;5.85;1.40;;;;;;;9.66;100.00;96779.66;5025413;28;20088;-53
2023/01/14 03:06:42;;;;;;;3.97;1.50;;;;;;;9.69;100.00;96787.28;5026980;28;20068;-53
2023/01/14 03:09:16;;;;;;;6.90;1.70;;;;;;;9.48;100.00;96789.94;5025669;28;20079;-50
2023/01/14 03:11:46;;;;;;;3.28;1.20;;;;;;;10.16;100.00;96785.00;5030236;28;20076;-53
2023/01/14 03:14:19;;;;;;;5.07;1.67;;;;;;;9.36;100.00;96792.78;5032764;28;20073;-52
2023/01/14 03:16:53;;;;;;;2.60;1.55;;;;;;;9.87;100.00;96787.50;5024579;28;20072;-50
2023/01/14 03:19:24;;;;;;;4.13;1.63;;;;;;;10.03;100.00;96786.19;5025390;28;20073;-51
2023/01/14 03:21:55;;;;;;;5.28;1.00;;;;;;;9.74;100.00;96798.28;5030299;28;20442;-54
2023/01/14 03:24:24;;;;;;;;;;;;;;;9.96;100.00;96786.72;5026373;28;20085;-57
2023/01/14 03:26:53;;;;;;;5.60;1.58;;;;;;;9.87;100.00;96795.41;5029761;28;20003;-56
2023/01/14 03:29:27;;;;;;;4.40;1.43;;;;;;;10.37;100.00;96790.22;5027618;28;20060;-57
2023/01/14 03:32:02;;;;;;;5.05;1.58;;;;;;;10.60;100.00;96787.38;5026671;28;20689;-53
2023/01/14 03:34:33;;;;;;;5.72;1.60;;;;;;;10.74;100.00;96778.22;5028531;28;20068;-54
2023/01/14 03:37:03;;;;;;;6.38;1.60;;;;;;;9.95;100.00;96798.25;5028325;28;20069;-58
2023/01/14 03:39:32;;;;;;;3.65;1.75;;;;;;;10.09;100.00;96786.50;5035348;28;20065;-50
2023/01/14 03:42:19;;;;;;;5.03;1.45;;;;;;;10.26;100.00;96781.59;5028512;28;20394;-56
2023/01/14 03:44:55;;;;;;;2.83;1.35;;;;;;;10.59;100.00;96789.13;5023890;28;20077;-54
2023/01/14 03:47:25;;;;;;;3.70;1.48;;;;;;;11.24;100.00;96780.69;5023902;28;20503;-51
2023/01/14 03:49:54;;;;;;;2.95;1.65;;;;;;;10.13;100.00;96787.91;5028468;28;20072;-47
2023/01/14 03:52:36;;;;;;;5.68;1.45;;;;;;;10.67;100.00;96784.03;5020967;28;20076;-54
2023/01/14 03:55:07;;;;;;;4.80;1.60;;;;;;;11.22;100.00;96779.97;5020670;28;20081;-47
2023/01/14 03:57:39;;;;;;;5.47;1.65;;;;;;;11.57;100.00;96785.50;5026438;28;20072;-56
2023/01/14 04:00:11;;;;;;;5.28;1.33;;;;;;;11.63;100.00;96784.06;5021080;28;20084;-54
2023/01/14 04:02:41;;;;;;;4.75;1.48;;;;;;;11.84;100.00;96781.28;5024086;28;20458;-51
2023/01/14 04:05:10;;;;;;;4.55;1.42;;;;;;;12.11;100.00;96785.75;5026108;28;20088;-50
2023/01/14 04:07:38;;;;;;;4.60;0.80;;;;;;;12.21;100.00;96781.25;5023232;28;20073;-55
2023/01/14 04:10:08;;;;;;;3.53;1.00;;;;;;;11.72;100.00;96788.50;5026522;28;20430;-51
2023/01/14 04:15:20;;;;;;;6.75;1.20;;;;;;;11.96;100.00;96784.56;5022120;28;20551;-53
2023/01/14 04:15:23;;;;;;;2.75;1.13;;;;;;;11.76;100.00;96787.25;5025298;28;20089;-51
2023/01/14 04:17:53;;;;;;;2.67;1.05;;;;;;;11.21;100.00;96784.44;5021700;28;20068;-53
2023/01/14 04:20:22;;;;;;;3.27;1.30;;;;;;;11.06;100.00;96789.31;5028011;28;20081;-59
2023/01/14 04:22:50;;;;;;;3.78;1.20;;;;;;;10.31;100.00;96787.28;5024237;28;20080;-54
2023/01/14 04:25:19;;;;;;;4.53;1.10;;;;;;;10.90;100.00;96781.13;5023935;28;20081;-51
2023/01/14 04:27:47;;;;;;;2.72;1.00;;;;;;;11.22;100.00;96790.53;5027589;28;20058;-52
2023/01/14 04:30:15;;;;;;;4.30;1.02;;;;;;;10.63;100.00;96787.91;5023637;28;20077;-52
2023/01/14 04:32:44;;;;;;;2.67;0.93;;;;;;;10.68;100.00;96785.69;5031159;28;20057;-54
2023/01/14 04:35:13;;;;;;;6.53;1.13;;;;;;;10.63;100.00;96787.06;5027014;28;20077;-56
2023/01/14 04:37:42;;;;;;;5.37;1.50;;;;;;;10.50;100.00;96781.25;5024514;28;20068;-47
2023/01/14 04:40:11;;;;;;;4.10;1.60;;;;;;;10.23;100.00;96780.03;5030167;28;20503;-47
2023/01/14 04:42:40;;;;;;;5.70;1.70;;;;;;;9.96;100.00;96775.34;5031941;28;20076;-50
2023/01/14 04:45:11;;;;;;;5.28;2.00;;;;;;;10.59;100.00;96767.22;5029109;28;20103;-48
2023/01/14 04:47:39;;;;;;;4.90;1.85;;;;;;;10.28;100.00;96777.84;5034730;28;20100;-55
2023/01/14 04:52:53;;;;;;;2.75;1.58;;;;;;;10.15;100.00;96772.78;5029379;28;20548;-59
2023/01/14 04:55:21;;;;;;;6.33;1.60;;;;;;;10.37;100.00;96781.47;5029010;28;20065;-51
2023/01/14 04:57:50;;;;;;;5.13;1.55;;;;;;;10.33;100.00;96773.00;5030744;28;20522;-54
2023/01/14 05:00:18;;;;;;;4.97;1.60;;;;;;;10.36;100.00;96771.91;5022822;28;20065;-54
2023/01/14 05:02:47;;;;;;;6.57;1.77;;;;;;;10.66;100.00;96765.69;5027847;28;20080;-47
2023/01/14 05:05:15;;;;;;;3.25;1.58;;;;;;;10.51;100.00;96762.63;5025912;28;20072;-55
2023/01/14 05:07:43;;;;;;;4.15;1.35;;;;;;;10.23;100.00;96772.13;5028551;28;20075;-49
2023/01/14 05:10:14;;;;;;;4.03;1.65;;;;;;;10.00;100.00;96768.84;5028798;28;20069;-47
2023/01/14 05:12:55;;;;;;;5.60;1.80;;;;;;;9.95;100.00;96761.34;5028247;28;20519;-56
2023/01/14 05:15:26;;;;;;;3.17;1.20;;;;;;;9.69;100.00;96766.22;5031136;28;20076;-56
2023/01/14 05:17:54;;;;;;;3.47;1.50;;;;;;;10.23;100.00;96756.31;5030845;28;20076;-50
2023/01/14 05:20:24;;;;;;;4.93;1.45;;;;;;;10.07;100.00;96764.72;5026595;28;20073;-56
2023/01/14 05:22:53;;;;;;;3.53;1.50;;;;;;;9.98;100.00;96769.00;5029041;28;20639;-52
2023/01/14 05:25:23;;;;;;;5.68;1.83;;;;;;;10.04;100.00;96769.41;5028203;28;20084;-51
2023/01/14 05:27:51;;;;;;;5.63;1.60;;;;;;;9.96;100.00;96764.81;5027891;28;20077;-54
2023/01/14 05:30:20;;;;;;;7.93;1.90;;;;;;;9.90;100.00;96755.63;5022942;28;20057;-51
2023/01/14 05:32:49;;;;;;;5.90;1.73;;;;;;;9.88;100.00;96757.59;5029585;28;20088;-47
2023/01/14 05:35:18;;;;;;;4.30;1.40;;;;;;;9.65;100.00;96762.19;5028032;28;20085;-50
2023/01/14 05:37:47;;;;;;;2.45;1.50;;;;;;;9.85;100.00;96749.13;5027584;28;20084;-50
2023/01/14 05:40:15;;;;;;;3.88;1.50;;;;;;;10.07;100.00;96753.34;5028216;28;20077;-52
2023/01/14 05:45:41;;;;;;;6.30;1.58;;;;;;;9.49;100.00;96752.13;5014661;28;20120;-51
2023/01/14 05:48:10;;;;;;;5.60;1.67;;;;;;;9.78;100.00;96758.53;5025883;28;20065;-49
2023/01/14 05:50:38;;;;;;;5.18;1.40;;;;;;;9.63;100.00;96752.75;5028682;28;20077;-54
2023/01/14 05:53:08;;;;;;;3.90;1.58;;;;;;;9.95;100.00;96755.25;5028638;28;20072;-53
2023/01/14 05:55:37;;;;;;;3.55;1.45;;;;;;;10.10;100.00;96766.25;5028458;28;20089;-54
2023/01/14 05:58:07;;;;;;;5.82;1.85;;;;;;;9.65;100.00;96753.47;5028971;28;20104;-49
2023/01/14 06:06:23;;;;;;;5.18;1.63;;;;;;;10.33;100.00;96757.19;5027839;28;20484;-57
2023/01/14 06:08:54;;;;;;;6.55;2.08;;;;;;;9.36;100.00;96753.28;5029225;28;20077;-50
2023/01/14 06:11:23;;;;;;;3.50;1.67;;;;;;;9.42;100.00;96763.31;5024548;28;20648;-51
2023/01/14 06:13:56;;;;;;;4.13;1.77;;;;;;;9.44;100.00;96764.03;5028525;28;20081;-51
2023/01/14 06:16:26;;;;;;;2.45;1.33;;;;;;;9.73;100.00;96753.63;5025748;28;20482;-53
2023/01/14 06:18:55;;;;;;;2.65;1.60;;;;;;;9.99;100.00;96759.28;5028257;28;20692;-53
2023/01/14 06:21:27;;;;;;;4.47;1.50;;;;;;;9.96;100.00;96760.38;5029495;28;20077;-53
2023/01/14 06:23:57;;;;;;;6.40;1.50;;;;;;;9.82;100.00;96767.81;5027825;28;20084;-54
2023/01/14 06:26:27;;;;;;;2.35;1.65;;;;;;;9.93;100.00;96759.81;5020136;28;20081;-49
2023/01/14 06:28:59;;;;;;;4.47;2.03;;;;;;;9.98;100.00;96757.63;5028313;28;20088;-54
2023/01/14 06:31:27;;;;;;;8.32;1.20;;;;;;;10.40;100.00;96752.22;5025722;28;20158;-60
2023/01/14 06:33:56;;;;;;;3.03;1.08;;;;;;;10.14;100.00;96760.56;5027568;28;20590;-56
2023/01/14 06:36:25;;;;;;;4.25;1.25;;;;;;;10.44;100.00;96746.53;5024695;28;20085;-57
2023/01/14 06:38:53;;;;;;;5.93;1.50;;;;;;;10.23;100.00;96754.50;5027732;28;20088;-48
2023/01/14 06:41:22;;;;;;;3.38;1.50;;;;;;;10.44;100.00;96761.50;5024649;28;20080;-47
2023/01/14 06:43:50;;;;;;;2.92;1.75;;;;;;;10.88;100.00;96754.88;5026346;28;20130;-58
2023/01/14 06:46:20;;;;;;;5.78;1.60;;;;;;;10.62;100.00;96757.22;5027382;28;20101;-53
2023/01/14 06:48:48;;;;;;;4.60;1.50;;;;;;;10.97;100.00;96747.09;5023355;28;20088;-50
2023/01/14 06:51:18;;;;;;;6.07;1.60;;;;;;;10.67;100.00;96751.56;5027334;28;20553;-54
2023/01/14 06:53:47;;;;;;;5.70;1.55;;;;;;;11.03;100.00;96738.63;5027495;28;20115;-53
2023/01/14 06:56:17;;;;;;;4.05;1.48;;;;;;;11.16;100.00;96740.00;5023821;28;20084;-50
2023/01/14 06:58:47;;;;;;;3.72;1.40;;;;;;;10.99;100.00;96745.16;5030229;28;20087;-54
2023/01/14 07:01:15;;;;;;;4.95;1.45;;;;;;;10.77;100.00;96736.56;5025657;28;20065;-49
2023/01/14 07:03:45;;;;;;;5.55;1.55;;;;;;;10.11;100.00;96742.38;5025138;28;20077;-49
2023/01/14 07:06:14;;;;;;;8.03;1.57;;;;;;;9.67;100.00;96738.34;5029078;28;20077;-49
2023/01/14 07:08:42;;;;;;;6.85;1.67;;;;;;;10.07;100.00;96734.91;5033202;28;20081;-51
2023/01/14 07:11:12;;;;;;;8.80;2.35;;;;;;;10.38;100.00;96728.59;5025199;28;20073;-54
2023/01/14 07:13:40;;;;;;;7.25;2.45;;;;;;;10.60;100.00;96732.81;5028708;28;20068;-48
2023/01/14 07:16:08;;;;;;;5.93;2.28;;;;;;;10.77;100.00;96723.38;5026233;28;20081;-52
2023/01/14 07:18:37;;;;;;;5.15;2.75;;;;;;;11.03;100.00;96714.88;5027572;28;20103;-50
2023/01/14 07:21:06;;;;;;;3.88;2.25;;;;;;;10.80;100.00;96717.78;5024024;28;20076;-47
2023/01/14 07:23:35;;;;;;;6.93;1.80;;;;;;;10.88;100.00;96709.19;5025140;28;20080;-51
2023/01/14 07:26:03;;;;;;;7.35;1.83;;;;;;;10.93;100.00;96709.59;5023437;28;20506;-54
2023/01/14 07:28:35;;;;;;;7.00;3.13;;;;;;;10.83;100.00;96708.78;5028742;28;20081;-50
2023/01/14 07:31:07;;;;;;;9.48;3.80;;;;;;;11.03;100.00;96706.97;5023889;28;20092;-51
2023/01/14 07:33:36;;;;;;;9.02;2.97;;;;;;;11.01;100.00;96693.06;5025126;28;20088;-53
2023/01/14 07:36:06;;;;;;;9.38;3.75;;;;;;;11.10;100.00;96697.50;5030714;28;20108;-46
2023/01/14 07:38:34;;;;;;;7.00;3.03;;;;;;;10.47;100.00;96703.22;5027867;28;20080;-49
2023/01/14 07:41:03;;;;;;;6.65;2.15;;;;;;;9.38;100.00;96707.47;5034241;28;20152;-53
2023/01/14 07:43:31;;;;;;;9.10;2.30;;;;;;;9.22;100.00;96707.97;5020492;28;20081;-58
2023/01/14 07:46:00;;;;;;;5.97;1.65;;;;;;;8.94;100.00;96700.69;5027230;28;20470;-58
2023/01/14 07:48:29;;;;;;;4.85;1.50;;;;;;;9.19;100.00;96702.13;5029341;28;20095;-51
2023/01/14 07:50:57;;;;;;;5.47;1.88;;;;;;;9.99;100.00;96701.31;5025840;28;20095;-54
2023/01/14 07:53:27;;;;;;;7.20;1.77;;;;;;;10.14;100.00;96680.69;5025392;28;20085;-57
2023/01/14 07:55:55;;;;;;;6.32;1.80;;;;;;;10.64;100.00;96685.91;5031190;28;20489;-57
2023/01/14 07:58:24;;;;;;;5.10;1.60;;;;;;;11.07;100.00;96680.13;5026928;28;20540;-55
2023/01/14 08:00:53;;;;;;;6.03;2.13;;;;;;;11.58;100.00;96673.56;5024452;28;20372;-57
2023/01/14 08:03:21;;;;;;;5.47;1.77;;;;;;;11.77;100.00;96672.69;5026546;28;20092;-52
2023/01/14 08:05:50;;;;;;;5.63;1.90;;;;;;;12.14;100.00;96668.31;5025162;28;20080;-56
2023/01/14 08:08:18;;;;;;;8.57;3.33;;;;;;;12.27;100.00;96669.59;5021694;28;20529;-51
2023/01/14 08:10:48;;;;;;;8.52;3.15;;;;;;;12.39;100.00;96667.59;5020837;28;20084;-52
2023/01/14 08:13:16;;;;;;;8.77;2.50;;;;;;;12.39;100.00;96666.75;5023528;28;20466;-60
2023/01/14 08:15:45;;;;;;;5.40;2.22;;;;;;;11.62;100.00;96666.19;5023986;28;20097;-55
2023/01/14 08:18:13;;;;;;;6.03;1.63;;;;;;;11.02;100.00;96668.34;5027173;28;20095;-53
2023/01/14 08:20:41;;;;;;;5.03;1.90;;;;;;;11.49;100.00;96673.63;5023814;28;20081;-51
2023/01/14 08:23:09;;;;;;;5.97;2.08;;;;;;;11.61;100.00;96668.00;5019057;28;20141;-52
2023/01/14 08:25:38;;;;;;;4.22;1.88;;;;;;;11.61;100.00;96665.38;5032221;28;20069;-52
2023/01/14 08:28:07;;;;;;;7.72;1.80;;;;;;;12.13;100.00;96656.09;5027108;28;20084;-50
2023/01/14 08:30:36;;;;;;;5.85;1.70;;;;;;;12.19;100.00;96658.97;5026371;28;20100;-50
2023/01/14 08:33:04;;;;;;;6.57;2.38;;;;;;;12.32;100.00;96642.75;5021471;28;20085;-51
2023/01/14 08:35:32;;;;;;;6.18;1.80;;;;;;;12.26;100.00;96643.34;5027186;28;20089;-53
2023/01/14 08:38:00;;;;;;;6.28;1.70;;;;;;;12.59;100.00;96637.34;5023328;28;20092;-56
2023/01/14 08:40:29;;;;;;;7.03;1.75;;;;;;;12.63;97.90;96640.53;5023850;28;20081;-50
2023/01/14 08:42:57;;;;;;;5.68;1.65;;;;;;;12.52;98.29;96641.56;5024537;28;20069;-50
2023/01/14 08:45:27;;;;;;;4.93;1.98;;;;;;;12.45;98.50;96634.41;5024256;28;20108;-55
2023/01/14 08:47:55;;;;;;;12.27;5.78;;;;;;;12.51;98.95;96631.97;5021932;28;20081;-49
2023/01/14 08:50:24;;;;;;;12.27;4.38;;;;;;;12.63;96.53;96631.72;5023220;28;20088;-58
2023/01/14 08:52:52;;;;;;;8.32;2.95;;;;;;;12.44;97.27;96632.75;5020339;28;20081;-60
2023/01/14 08:55:21;;;;;;;5.85;1.67;;;;;;;12.99;92.95;96630.69;5026655;28;20077;-61
2023/01/14 08:57:49;;;;;;;40.20;19.42;;;;;;;13.23;91.08;96621.25;5024816;28;20089;-49
2023/01/14 09:00:18;;;;;;;21.30;9.32;;;;;;;13.03;95.37;96625.91;5019942;28;20089;-51
2023/01/14 09:02:48;;;;;;;113.93;43.75;;;;;;;13.09;95.98;96616.53;5022824;28;20081;-53
2023/01/14 09:05:16;;;;;;;497.43;199.50;;;;;;;12.68;98.08;96621.53;5028365;28;20066;-53
2023/01/14 09:18:52;;;;;;;6.60;1.90;;;;;;;13.29;94.09;96604.75;5025799;28;20081;-56
2023/01/14 09:21:20;;;;;;;9.25;2.30;;;;;;;12.97;98.30;96603.56;5028998;28;20073;-50
2023/01/14 09:23:49;;;;;;;8.55;3.28;;;;;;;13.35;95.06;96605.94;5029772;28;20081;-49
2023/01/14 09:26:19;;;;;;;8.98;3.05;;;;;;;13.40;95.23;96617.72;5027982;28;20549;-52
2023/01/14 09:28:48;;;;;;;13.50;4.03;;;;;;;13.74;88.24;96616.88;5027379;28;20096;-54
2023/01/14 09:31:16;;;;;;;8.77;2.95;;;;;;;13.76;83.98;96605.13;5027531;28;20353;-52
2023/01/14 09:33:44;;;;;;;9.10;1.70;;;;;;;13.76;87.70;96614.88;5027059;28;20080;-50
2023/01/14 09:36:14;;;;;;;6.90;2.15;;;;;;;14.27;78.82;96604.22;5027919;28;20096;-57
2023/01/14 09:38:42;;;;;;;5.40;1.87;;;;;;;14.40;77.79;96594.78;5025587;28;20042;-52
2023/01/14 09:41:23;;;;;;;5.72;1.67;;;;;;;14.27;79.31;96597.09;5028759;28;20085;-56
2023/01/14 09:43:53;;;;;;;4.88;1.42;;;;;;;14.21;80.92;96589.78;5027537;28;20077;-49
2023/01/14 09:46:24;;;;;;;5.57;1.50;;;;;;;14.79;76.66;96580.03;5028113;28;20088;-56
2023/01/14 09:48:54;;;;;;;4.47;1.80;;;;;;;14.58;80.91;96585.88;5026588;28;20077;-49
2023/01/14 09:51:59;;;;;;;7.82;1.63;;;;;;;15.05;75.25;96579.84;5025357;28;20091;-58
2023/01/14 09:54:32;;;;;;;4.68;1.70;;;;;;;14.86;73.95;96571.22;5027375;28;20100;-50
2023/01/14 09:57:06;;;;;;;2.90;1.15;;;;;;;14.95;73.30;96570.22;5025163;28;20088;-56
2023/01/14 09:59:40;;;;;;;6.63;1.25;;;;;;;15.08;70.75;96571.53;5026597;28;20081;-53
2023/01/14 10:02:15;;;;;;;4.65;1.63;;;;;;;15.65;65.83;96564.16;5029618;28;20081;-51
2023/01/14 10:04:54;;;;;;;7.13;1.20;;;;;;;15.59;63.12;96556.09;5021439;28;20545;-55
2023/01/14 10:07:24;;;;;;;3.13;1.25;;;;;;;16.11;62.55;96552.81;5026997;28;20705;-54
2023/01/14 10:09:55;;;;;;;5.93;1.52;;;;;;;16.28;61.27;96551.69;5025599;28;20077;-53
2023/01/14 10:12:24;;;;;;;;;;;;;;;16.46;60.03;96539.91;5023813;28;20089;-50
2023/01/14 10:15:00;;;;;;;5.00;1.50;;;;;;;16.39;56.50;96542.47;5027326;28;20078;-53
2023/01/14 10:17:33;;;;;;;4.55;0.90;;;;;;;16.01;57.46;96534.44;5027259;28;20085;-55
2023/01/14 10:20:08;;;;;;;3.92;1.00;;;;;;;15.34;58.41;96540.22;5026751;28;20088;-49
2023/01/14 10:22:40;;;;;;;3.22;1.17;;;;;;;15.76;54.13;96528.44;5027030;28;20068;-50
2023/01/14 10:25:15;;;;;;;4.90;1.50;;;;;;;15.36;55.90;96521.47;5026653;28;20081;-56
2023/01/14 10:27:45;;;;;;;6.38;1.63;;;;;;;16.66;52.75;96514.44;5027332;28;20115;-53
2023/01/14 10:30:18;;;;;;;2.50;0.90;;;;;;;16.17;53.42;96503.38;5025388;28;20080;-55
2023/01/14 10:32:49;;;;;;;3.35;0.90;;;;;;;16.06;53.04;96505.44;5023530;28;20081;-55
2023/01/14 10:35:24;;;;;;;4.70;1.50;;;;;;;15.83;52.94;96505.47;5025773;28;20091;-56
2023/01/14 10:37:54;;;;;;;2.63;1.30;;;;;;;16.20;52.62;96487.06;5028010;28;20096;-60
2023/01/14 10:40:23;;;;;;;5.00;1.70;;;;;;;16.11;53.82;96481.00;5024191;28;20081;-53
2023/01/14 10:42:52;;;;;;;7.28;1.80;;;;;;;16.83;51.90;96481.34;5025147;28;20079;-50
2023/01/14 10:45:21;;;;;;;4.47;1.15;;;;;;;16.97;52.15;96474.34;5029730;28;20083;-53
2023/01/14 10:47:54;;;;;;;2.53;0.88;;;;;;;16.72;51.09;96475.59;5022405;28;20084;-54
2023/01/14 10:50:24;;;;;;;4.88;0.95;;;;;;;16.70;49.93;96472.28;5022345;28;20085;-51
2023/01/14 10:52:54;;;;;;;2.53;0.73;;;;;;;16.87;49.48;96472.97;5027502;28;20124;-55
2023/01/14 10:55:24;;;;;;;3.53;1.10;;;;;;;16.13;50.34;96465.66;5024418;28;20085;-51
2023/01/14 10:57:57;;;;;;;3.90;1.08;;;;;;;16.33;50.62;96456.16;5032066;28;20073;-54
2023/01/14 11:00:35;;;;;;;2.33;1.10;;;;;;;16.74;50.68;96453.13;5029370;28;20085;-53
2023/01/14 11:03:05;;;;;;;2.53;0.93;;;;;;;16.33;49.42;96445.53;5025179;28;20081;-58
2023/01/14 11:05:35;;;;;;;2.85;0.98;;;;;;;16.24;48.41;96443.97;5029328;28;20073;-49
2023/01/14 11:08:19;;;;;;;5.28;1.38;;;;;;;16.28;49.34;96437.28;5024681;28;20095;-56
2023/01/14 11:10:54;;;;;;;1.85;0.60;;;;;;;16.47;48.56;96440.41;5019273;28;20081;-59
2023/01/14 11:13:31;;;;;;;2.15;1.00;;;;;;;16.47;47.73;96429.75;5028478;28;20072;-55
2023/01/14 11:16:00;;;;;;;3.90;1.60;;;;;;;16.17;48.73;96427.03;5025930;28;20486;-50
2023/01/14 11:18:30;;;;;;;5.13;1.92;;;;;;;16.52;50.16;96422.06;5024758;28;20084;-55
2023/01/14 11:21:06;;;;;;;3.58;1.58;;;;;;;16.40;49.16;96408.38;5028506;28;20077;-53
2023/01/14 11:23:38;;;;;;;9.15;1.30;;;;;;;17.15;48.64;96398.53;5021220;28;20077;-56
2023/01/14 11:26:08;;;;;;;4.25;1.85;;;;;;;16.90;48.90;96392.72;5029258;28;20084;-52
2023/01/14 11:28:38;;;;;;;2.75;1.00;;;;;;;16.52;49.52;96390.94;5022937;28;20107;-53
2023/01/14 11:31:07;;;;;;;3.65;1.42;;;;;;;17.03;48.73;96371.53;5026643;28;20084;-53
2023/01/14 11:33:35;;;;;;;3.30;1.30;;;;;;;17.06;48.30;96365.81;5025541;28;20081;-49
2023/01/14 11:36:24;;;;;;;5.55;1.90;;;;;;;16.34;49.62;96351.38;5026583;28;20077;-54
2023/01/14 11:38:56;;;;;;;4.43;2.05;;;;;;;16.72;47.72;96342.44;5026865;28;20583;-58
2023/01/14 11:41:36;;;;;;;3.30;1.05;;;;;;;16.61;48.54;96338.41;5026659;28;20081;-49
2023/01/14 11:44:18;;;;;;;8.85;1.23;;;;;;;16.58;48.30;96334.28;5023162;28;20480;-57
2023/01/14 11:46:46;;;;;;;2.00;0.93;;;;;;;16.77;47.71;96327.59;5022053;28;20092;-49
2023/01/14 11:49:17;;;;;;;2.28;0.77;;;;;;;17.17;46.50;96325.41;5025585;28;20073;-49
2023/01/14 11:51:59;;;;;;;2.15;0.93;;;;;;;17.54;47.01;96318.97;5025898;28;20152;-56
2023/01/14 11:54:34;;;;;;;21.77;10.52;;;;;;;17.57;46.82;96317.75;5020621;28;20077;-57
2023/01/14 11:57:03;;;;;;;2.45;1.10;;;;;;;17.15;47.48;96313.25;5025964;28;20076;-54
2023/01/14 11:59:33;;;;;;;1.70;0.52;;;;;;;16.23;50.72;96303.09;5024867;28;20089;-51
2023/01/14 12:02:06;;;;;;;3.38;0.73;;;;;;;16.66;49.74;96293.44;5025086;28;20087;-49
2023/01/14 12:04:39;;;;;;;1.95;0.63;;;;;;;17.19;49.92;96293.22;5019758;28;20073;-50
2023/01/14 12:07:08;;;;;;;4.15;1.48;;;;;;;17.50;48.09;96282.22;5022430;28;20475;-59
2023/01/14 12:09:45;;;;;;;4.47;1.00;;;;;;;17.63;47.65;96282.34;5026252;28;20088;-56
2023/01/14 12:12:18;;;;;;;2.05;0.80;;;;;;;17.58;48.24;96271.41;5024623;28;20548;-53